createdAt,value
2017-08-16T00:02:25.915Z,30.50
2017-08-16T00:04:55.815Z,30.85
2017-08-16T00:07:24.898Z,34.33
2017-08-16T00:09:54.316Z,27.52
2017-08-16T00:12:22.793Z,30.33
2017-08-16T00:14:51.166Z,28.30
2017-08-16T00:17:19.944Z,30.85
2017-08-16T00:19:47.833Z,31.27
2017-08-16T00:22:16.442Z,30.50
2017-08-16T00:24:45.206Z,31.67
2017-08-16T00:27:14.378Z,40.72
2017-08-16T00:29:43.545Z,29.37
2017-08-16T00:32:12.773Z,35.88
2017-08-16T00:34:41.254Z,28.38
2017-08-16T00:37:09.239Z,39.38
2017-08-16T00:39:37.084Z,33.70
2017-08-16T00:42:04.789Z,34.20
2017-08-16T00:44:32.936Z,35.10
2017-08-16T00:47:01.393Z,35.28
2017-08-16T00:49:29.957Z,36.92
2017-08-16T00:51:57.947Z,35.20
2017-08-16T00:54:26.837Z,33.33
2017-08-16T00:56:54.357Z,39.88
2017-08-16T00:59:24.616Z,39.80
2017-08-16T01:01:54.326Z,44.63
2017-08-16T01:04:24.068Z,37.42
2017-08-16T01:06:52.920Z,43.05
2017-08-16T01:09:22.260Z,40.08
2017-08-16T01:11:50.204Z,45.50
2017-08-16T01:14:20.702Z,41.65
2017-08-16T01:16:49.115Z,44.50
2017-08-16T01:19:17.825Z,41.58
2017-08-16T01:21:46.461Z,40.90
2017-08-16T01:24:15.028Z,49.85
2017-08-16T01:26:42.673Z,38.72
2017-08-16T01:29:11.500Z,44.28
2017-08-16T01:31:40.388Z,44.45
2017-08-16T01:34:10.003Z,52.80
2017-08-16T01:36:37.872Z,45.55
2017-08-16T01:39:05.629Z,46.13
2017-08-16T01:41:34.107Z,50.28
2017-08-16T01:44:02.908Z,50.83
2017-08-16T01:46:32.489Z,47.20
2017-08-16T01:49:00.997Z,50.83
2017-08-16T01:51:29.002Z,51.88
2017-08-16T01:53:56.786Z,50.47
2017-08-16T01:56:24.689Z,50.47
2017-08-16T01:58:53.989Z,55.30
2017-08-16T02:01:21.733Z,51.15
2017-08-16T02:03:50.245Z,46.03
2017-08-16T02:06:17.944Z,48.53
2017-08-16T02:08:46.246Z,50.65
2017-08-16T02:11:14.936Z,53.57
2017-08-16T02:13:44.794Z,52.20
2017-08-16T02:16:14.860Z,48.17
2017-08-16T02:18:43.276Z,55.33
2017-08-16T02:21:12.742Z,55.35
2017-08-16T02:23:43.782Z,47.38
2017-08-16T02:26:12.730Z,52.90
2017-08-16T02:28:42.275Z,54.03
2017-08-16T02:31:10.861Z,56.72
2017-08-16T02:33:39.121Z,57.25
2017-08-16T02:36:07.412Z,51.15
2017-08-16T02:38:35.888Z,48.00
2017-08-16T02:41:04.881Z,48.13
2017-08-16T02:43:33.314Z,49.97
2017-08-16T02:46:02.497Z,52.30
2017-08-16T02:48:30.434Z,59.58
2017-08-16T02:50:57.917Z,57.85
2017-08-16T02:53:26.484Z,57.15
2017-08-16T02:55:58.283Z,57.97
2017-08-16T02:58:28.229Z,52.25
2017-08-16T03:00:56.682Z,52.50
2017-08-16T03:03:25.952Z,63.50
2017-08-16T03:05:55.235Z,57.30
2017-08-16T03:08:22.736Z,63.58
2017-08-16T03:10:51.044Z,61.60
2017-08-16T03:13:21.036Z,68.32
2017-08-16T03:15:49.480Z,57.22
2017-08-16T03:18:18.488Z,61.17
2017-08-16T03:20:49.470Z,68.47
2017-08-16T03:23:18.053Z,61.92
2017-08-16T03:25:45.821Z,66.22
2017-08-16T03:28:15.213Z,54.05
2017-08-16T03:30:43.602Z,71.72
2017-08-16T03:33:13.301Z,60.00
2017-08-16T03:35:42.106Z,57.62
2017-08-16T03:38:11.509Z,67.83
2017-08-16T03:40:40.178Z,61.00
2017-08-16T03:43:08.338Z,56.37
2017-08-16T03:45:37.984Z,64.35
2017-08-16T03:48:05.480Z,68.37
2017-08-16T03:50:34.502Z,59.03
2017-08-16T03:53:03.039Z,73.53
2017-08-16T03:55:31.785Z,60.35
2017-08-16T03:58:00.149Z,67.82
2017-08-16T04:00:28.017Z,70.50
2017-08-16T04:02:57.549Z,70.10
2017-08-16T04:05:26.505Z,68.82
2017-08-16T04:07:54.898Z,72.82
2017-08-16T04:10:26.332Z,69.35
2017-08-16T04:12:55.577Z,84.73
2017-08-16T04:15:24.018Z,62.78
2017-08-16T04:17:53.047Z,68.78
2017-08-16T04:20:22.575Z,75.25
2017-08-16T04:22:53.045Z,73.30
2017-08-16T04:25:21.986Z,66.75
2017-08-16T04:27:53.087Z,77.15
2017-08-16T04:30:22.877Z,69.85
2017-08-16T04:32:52.381Z,73.20
2017-08-16T04:35:19.912Z,75.77
2017-08-16T04:37:49.464Z,76.20
2017-08-16T04:40:18.656Z,78.83
2017-08-16T04:42:47.046Z,74.55
2017-08-16T04:45:15.425Z,74.20
2017-08-16T04:47:45.616Z,71.05
2017-08-16T04:50:14.816Z,74.03
2017-08-16T04:52:43.322Z,69.05
2017-08-16T04:55:11.322Z,66.53
2017-08-16T04:57:41.169Z,80.12
2017-08-16T05:00:10.047Z,72.65
2017-08-16T05:02:41.309Z,80.87
2017-08-16T05:05:09.683Z,86.28
2017-08-16T05:07:37.649Z,74.87
2017-08-16T05:10:05.185Z,78.95
2017-08-16T05:12:35.045Z,75.95
2017-08-16T05:15:03.446Z,74.70
2017-08-16T05:17:32.184Z,76.45
2017-08-16T05:20:00.958Z,72.35
2017-08-16T05:22:28.735Z,67.77
2017-08-16T05:24:57.218Z,77.32
2017-08-16T05:27:26.144Z,86.85
2017-08-16T05:29:53.974Z,86.47
2017-08-16T05:32:23.472Z,83.22
2017-08-16T05:34:51.780Z,87.50
2017-08-16T05:37:21.922Z,72.15
2017-08-16T05:39:51.576Z,75.37
2017-08-16T05:42:20.066Z,75.05
2017-08-16T05:44:47.926Z,80.55
2017-08-16T05:47:15.709Z,79.37
2017-08-16T05:49:43.651Z,93.90
2017-08-16T05:52:13.466Z,77.50
2017-08-16T05:54:42.972Z,83.35
2017-08-16T05:57:11.655Z,79.35
2017-08-16T05:59:39.545Z,89.95
2017-08-16T06:02:07.408Z,73.43
2017-08-16T06:04:35.656Z,66.40
2017-08-16T06:07:03.623Z,81.53
2017-08-16T06:09:32.325Z,81.28
2017-08-16T06:12:00.088Z,82.60
2017-08-16T06:14:28.961Z,77.32
2017-08-16T06:16:58.156Z,75.30
2017-08-16T06:19:27.475Z,77.32
2017-08-16T06:21:55.552Z,75.80
2017-08-16T06:24:24.315Z,86.55
2017-08-16T06:26:52.557Z,67.97
2017-08-16T06:29:20.859Z,70.40
2017-08-16T06:31:49.965Z,75.78
2017-08-16T06:34:20.613Z,77.90
2017-08-16T06:39:07.821Z,69.50
2017-08-16T06:41:35.891Z,76.62
2017-08-16T06:44:04.484Z,78.18
2017-08-16T06:46:31.956Z,86.85
2017-08-16T06:49:00.471Z,95.50
2017-08-16T06:51:29.217Z,92.10
2017-08-16T06:53:56.893Z,112.50
2017-08-16T06:56:24.720Z,99.07
2017-08-16T06:58:52.645Z,95.72
2017-08-16T07:01:21.270Z,97.62
2017-08-16T07:03:49.136Z,106.90
2017-08-16T07:06:16.727Z,103.53
2017-08-16T07:08:44.561Z,98.95
2017-08-16T07:11:12.135Z,118.90
2017-08-16T07:13:39.836Z,126.53
2017-08-16T07:16:08.567Z,97.55
2017-08-16T07:18:36.432Z,106.97
2017-08-16T07:21:04.089Z,110.30
2017-08-16T07:23:32.931Z,110.45
2017-08-16T07:26:00.745Z,103.40
2017-08-16T07:28:28.369Z,100.18
2017-08-16T07:30:57.192Z,96.25
2017-08-16T07:33:25.532Z,101.33
2017-08-16T07:35:54.042Z,99.68
2017-08-16T07:38:21.889Z,92.80
2017-08-16T07:40:51.319Z,87.72
2017-08-16T07:43:19.749Z,83.83
2017-08-16T07:45:48.390Z,85.12
2017-08-16T07:48:16.070Z,86.07
2017-08-16T07:50:44.600Z,86.43
2017-08-16T07:53:12.104Z,95.60
2017-08-16T07:55:39.961Z,88.12
2017-08-16T07:58:07.695Z,81.15
2017-08-16T08:00:35.919Z,87.68
2017-08-16T08:03:03.743Z,86.80
2017-08-16T08:05:31.522Z,86.93
2017-08-16T08:07:59.852Z,81.60
2017-08-16T08:10:27.610Z,83.68
2017-08-16T08:12:55.965Z,79.68
2017-08-16T08:15:23.854Z,79.55
2017-08-16T08:17:51.521Z,69.87
2017-08-16T08:20:20.030Z,67.10
2017-08-16T08:22:47.508Z,71.60
2017-08-16T08:25:15.282Z,67.37
2017-08-16T08:27:43.687Z,67.05
2017-08-16T08:30:12.161Z,62.22
2017-08-16T08:32:40.790Z,60.80
2017-08-16T08:35:10.092Z,60.70
2017-08-16T08:37:38.772Z,57.55
2017-08-16T08:40:08.317Z,53.40
2017-08-16T08:42:36.120Z,59.07
2017-08-16T08:45:04.612Z,51.85
2017-08-16T08:47:33.206Z,57.95
2017-08-16T08:50:00.893Z,57.65
2017-08-16T08:52:28.354Z,51.33
2017-08-16T08:54:56.392Z,56.53
2017-08-16T08:57:24.796Z,54.85
2017-08-16T08:59:52.493Z,50.75
2017-08-16T09:02:20.739Z,49.95
2017-08-16T09:04:48.414Z,48.27
2017-08-16T09:07:16.230Z,50.55
2017-08-16T09:09:44.103Z,45.88
2017-08-16T09:12:12.234Z,55.55
2017-08-16T09:14:41.610Z,72.18
2017-08-16T09:17:09.287Z,67.90
2017-08-16T09:19:40.577Z,61.63
2017-08-16T09:22:08.441Z,59.65
2017-08-16T09:24:36.015Z,49.03
2017-08-16T09:27:03.497Z,52.65
2017-08-16T09:29:30.994Z,55.85
2017-08-16T09:31:58.443Z,48.90
2017-08-16T09:34:26.140Z,56.67
2017-08-16T09:36:54.513Z,53.58
2017-08-16T09:39:22.037Z,52.80
2017-08-16T09:41:51.672Z,44.63
2017-08-16T09:44:19.160Z,45.63
2017-08-16T09:46:47.337Z,47.05
2017-08-16T09:49:14.830Z,41.50
2017-08-16T09:51:43.485Z,39.55
2017-08-16T09:54:11.515Z,42.33
2017-08-16T09:56:39.184Z,37.95
2017-08-16T09:59:07.039Z,43.72
2017-08-16T10:01:35.722Z,66.57
2017-08-16T10:04:03.662Z,72.47
2017-08-16T10:06:32.230Z,53.57
2017-08-16T10:08:59.675Z,47.58
2017-08-16T10:11:27.197Z,38.70
2017-08-16T10:13:54.888Z,52.65
2017-08-16T10:16:23.892Z,42.47
2017-08-16T10:18:52.784Z,38.53
2017-08-16T10:21:22.388Z,43.97
2017-08-16T10:23:51.270Z,37.83
2017-08-16T10:26:20.196Z,33.35
2017-08-16T10:28:48.508Z,33.10
2017-08-16T10:31:16.357Z,34.10
2017-08-16T10:33:43.829Z,36.55
2017-08-16T10:36:11.952Z,40.80
2017-08-16T10:38:40.310Z,79.40
2017-08-16T10:41:09.030Z,40.63
2017-08-16T10:43:36.584Z,85.78
2017-08-16T10:46:04.467Z,99.80
2017-08-16T10:48:31.959Z,34.03
2017-08-16T10:50:59.440Z,50.65
2017-08-16T10:53:28.494Z,64.45
2017-08-16T10:55:56.371Z,80.43
2017-08-16T10:58:23.857Z,62.15
2017-08-16T11:00:52.101Z,39.78
2017-08-16T11:03:19.744Z,31.12
2017-08-16T11:05:48.807Z,40.13
2017-08-16T11:08:17.647Z,39.13
2017-08-16T11:10:45.222Z,31.65
2017-08-16T11:16:26.382Z,22.95
2017-08-16T11:18:53.837Z,26.70
2017-08-16T11:21:21.825Z,26.95
2017-08-16T11:23:50.294Z,22.83
2017-08-16T11:26:17.998Z,17.25
2017-08-16T11:28:46.534Z,22.70
2017-08-16T11:31:14.258Z,17.30
2017-08-16T11:33:42.241Z,24.60
2017-08-16T11:36:10.325Z,24.12
2017-08-16T11:38:38.629Z,21.37
2017-08-16T11:41:06.131Z,19.02
2017-08-16T11:43:33.621Z,18.50
2017-08-16T11:46:01.124Z,322.95
2017-08-16T11:48:29.590Z,266.17
2017-08-16T11:50:57.836Z,48.47
2017-08-16T11:53:25.348Z,42.75
2017-08-16T11:55:53.600Z,23.23
2017-08-16T11:58:21.083Z,33.40
2017-08-16T12:00:49.147Z,36.50
2017-08-16T12:03:16.600Z,35.80
2017-08-16T12:05:44.957Z,24.77
2017-08-16T12:08:13.041Z,22.92
2017-08-16T12:10:41.978Z,29.25
2017-08-16T12:13:10.957Z,32.80
2017-08-16T12:15:38.613Z,19.58
2017-08-16T12:18:06.890Z,17.85
2017-08-16T12:20:35.274Z,20.48
2017-08-16T12:23:06.194Z,31.20
2017-08-16T12:25:34.275Z,16.58
2017-08-16T12:28:04.504Z,27.83
2017-08-16T12:30:32.328Z,21.67
2017-08-16T12:33:03.508Z,34.88
2017-08-16T12:35:31.722Z,23.45
2017-08-16T12:38:00.570Z,16.40
2017-08-16T12:40:31.425Z,14.98
2017-08-16T12:42:59.705Z,19.95
2017-08-16T12:45:28.156Z,13.07
2017-08-16T12:47:57.182Z,15.00
2017-08-16T12:50:25.982Z,40.58
2017-08-16T12:52:55.092Z,42.53
2017-08-16T12:55:24.865Z,20.60
2017-08-16T12:57:54.142Z,19.05
2017-08-16T13:00:26.107Z,16.90
2017-08-16T13:02:54.786Z,11.07
2017-08-16T13:05:23.982Z,13.43
2017-08-16T13:07:53.386Z,18.03
2017-08-16T13:10:21.876Z,15.70
2017-08-16T13:12:50.651Z,13.05
2017-08-16T13:15:19.861Z,15.30
2017-08-16T13:17:48.637Z,15.35
2017-08-16T13:20:17.426Z,13.65
2017-08-16T13:22:47.024Z,11.15
2017-08-16T13:25:17.673Z,16.80
2017-08-16T13:27:46.240Z,11.88
2017-08-16T13:30:17.644Z,17.12
2017-08-16T13:32:48.013Z,11.68
2017-08-16T13:35:20.745Z,12.10
2017-08-16T13:37:50.516Z,12.75
2017-08-16T13:40:19.596Z,13.20
2017-08-16T13:42:48.586Z,12.90
2017-08-16T13:45:17.702Z,15.00
2017-08-16T13:47:46.944Z,13.10
2017-08-16T13:50:15.333Z,14.18
2017-08-16T13:52:44.359Z,11.95
2017-08-16T13:55:13.137Z,12.77
2017-08-16T13:57:44.518Z,12.55
2017-08-16T14:00:12.251Z,12.27
2017-08-16T14:02:42.726Z,15.53
2017-08-16T14:05:12.879Z,12.63
2017-08-16T14:07:42.785Z,10.52
2017-08-16T14:10:12.229Z,9.50
2017-08-16T14:12:43.171Z,13.75
2017-08-16T14:15:13.570Z,13.43
2017-08-16T14:17:41.861Z,13.18
2017-08-16T14:20:09.894Z,12.70
2017-08-16T14:22:39.048Z,12.48
2017-08-16T14:25:10.303Z,13.05
2017-08-16T14:27:39.040Z,14.20
2017-08-16T14:30:07.622Z,15.27
2017-08-16T14:32:35.393Z,15.30
2017-08-16T14:35:05.538Z,16.05
2017-08-16T14:37:34.700Z,15.93
2017-08-16T14:40:02.959Z,13.57
2017-08-16T14:42:31.967Z,16.70
2017-08-16T14:44:59.834Z,13.95
2017-08-16T14:47:27.892Z,16.90
2017-08-16T14:49:57.028Z,16.92
2017-08-16T14:52:25.580Z,15.02
2017-08-16T14:54:55.084Z,27.05
2017-08-16T14:57:23.900Z,37.33
2017-08-16T15:04:51.482Z,26.67
2017-08-16T15:07:22.138Z,25.83
2017-08-16T15:09:52.180Z,18.02
2017-08-16T15:14:52.343Z,29.65
2017-08-16T15:17:20.979Z,18.75
2017-08-16T15:19:50.938Z,29.10
2017-08-16T15:22:20.448Z,17.75
2017-08-16T15:24:47.925Z,17.30
2017-08-16T15:27:17.123Z,47.23
2017-08-16T15:29:45.763Z,75.50
2017-08-16T15:34:42.748Z,38.50
2017-08-16T15:37:10.606Z,27.35
2017-08-16T15:39:41.923Z,37.70
2017-08-16T15:44:38.461Z,20.60
2017-08-16T15:47:08.034Z,23.67
2017-08-16T15:49:38.103Z,92.82
2017-08-16T15:52:07.151Z,67.20
2017-08-16T15:54:35.924Z,32.60
2017-08-16T15:57:03.666Z,36.10
2017-08-16T15:59:32.760Z,23.60
2017-08-16T16:02:03.907Z,24.37
2017-08-16T16:04:32.315Z,25.15
2017-08-16T16:07:00.896Z,22.67
2017-08-16T16:09:30.528Z,19.45
2017-08-16T16:12:01.330Z,25.40
2017-08-16T16:14:29.324Z,22.65
2017-08-16T16:17:00.748Z,18.85
2017-08-16T16:19:29.205Z,17.20
2017-08-16T16:21:59.171Z,17.30
2017-08-16T16:24:29.489Z,18.52
2017-08-16T16:26:58.149Z,18.17
2017-08-16T16:29:27.623Z,13.70
2017-08-16T17:09:07.253Z,28.13
2017-08-16T17:16:32.457Z,23.97
2017-08-16T17:19:00.454Z,16.48
2017-08-16T17:21:31.341Z,15.70
2017-08-16T17:23:59.228Z,15.50
2017-08-16T17:26:29.420Z,19.17
2017-08-16T17:28:58.416Z,16.10
2017-08-16T17:31:27.936Z,16.08
2017-08-16T17:33:59.132Z,18.30
2017-08-16T17:36:27.540Z,16.17
2017-08-16T17:38:56.954Z,17.37
2017-08-16T17:41:24.760Z,13.77
2017-08-16T17:43:55.844Z,12.40
2017-08-16T17:46:25.211Z,12.90
2017-08-16T17:48:53.133Z,16.08
2017-08-16T17:51:22.307Z,13.43
2017-08-16T17:53:50.971Z,11.70
2017-08-16T17:56:19.617Z,14.82
2017-08-16T17:58:48.462Z,12.57
2017-08-16T18:01:18.339Z,12.50
2017-08-16T18:03:46.804Z,17.23
2017-08-16T18:06:15.340Z,14.60
2017-08-16T18:08:44.339Z,12.43
2017-08-16T18:11:13.049Z,14.50
2017-08-16T18:13:40.981Z,13.00
2017-08-16T18:16:08.748Z,16.90
2017-08-16T18:18:37.541Z,14.77
2017-08-16T18:21:05.449Z,15.48
2017-08-16T18:23:36.397Z,14.27
2017-08-16T18:26:05.025Z,11.90
2017-08-16T18:28:35.564Z,15.32
2017-08-16T18:31:05.255Z,17.20
2017-08-16T18:33:33.120Z,14.13
2017-08-16T18:36:01.822Z,13.75
2017-08-16T18:38:29.774Z,16.92
2017-08-16T18:43:24.431Z,15.50
2017-08-16T18:48:21.796Z,13.88
2017-08-16T18:50:49.366Z,384.85
2017-08-16T18:53:18.003Z,167.68
2017-08-16T18:55:46.091Z,119.93
2017-08-16T18:58:14.437Z,25.42
2017-08-16T19:00:43.261Z,23.33
2017-08-16T19:03:12.944Z,24.63
2017-08-16T19:05:40.504Z,17.83
2017-08-16T19:08:09.290Z,19.40
2017-08-16T19:10:37.187Z,17.97
2017-08-16T19:13:05.576Z,17.23
2017-08-16T19:15:35.331Z,19.27
2017-08-16T19:18:04.855Z,19.85
2017-08-16T19:20:34.974Z,23.17
2017-08-16T19:23:02.735Z,22.40
2017-08-16T19:25:30.205Z,16.98
2017-08-16T19:27:58.337Z,19.25
2017-08-16T19:35:45.321Z,22.83
2017-08-16T19:38:13.272Z,19.98
2017-08-16T19:40:42.067Z,17.43
2017-08-16T19:43:10.010Z,38.53
2017-08-16T19:45:38.016Z,45.88
2017-08-16T19:48:07.276Z,19.15
2017-08-16T19:50:35.141Z,16.55
2017-08-16T19:53:03.957Z,18.62
2017-08-16T19:55:33.738Z,20.30
2017-08-16T19:58:02.424Z,16.70
2017-08-16T20:00:31.786Z,17.20
2017-08-16T20:03:44.865Z,18.35
2017-08-16T20:06:12.724Z,58.35
2017-08-16T20:08:41.811Z,46.03
2017-08-16T20:11:11.540Z,21.97
2017-08-16T20:13:39.382Z,22.33
2017-08-16T20:16:07.606Z,20.75
2017-08-16T20:18:35.447Z,19.87
2017-08-16T20:21:03.283Z,17.65
2017-08-16T20:23:30.922Z,22.57
2017-08-16T20:25:59.744Z,25.02
2017-08-16T20:28:27.265Z,25.30
2017-08-16T20:30:55.277Z,23.55
2017-08-16T20:33:23.499Z,23.83
2017-08-16T20:35:52.323Z,23.83
2017-08-16T20:38:20.295Z,31.52
2017-08-16T20:40:48.017Z,23.33
2017-08-16T20:43:16.533Z,27.67
2017-08-16T20:45:44.296Z,24.95
2017-08-16T20:48:11.754Z,23.75
2017-08-16T20:50:40.548Z,24.83
2017-08-16T20:53:08.717Z,26.15
2017-08-16T20:55:38.930Z,23.27
2017-08-16T20:58:07.575Z,24.13
2017-08-16T21:00:35.490Z,26.00
2017-08-16T21:03:47.847Z,24.42
2017-08-16T21:06:44.428Z,26.62
2017-08-16T21:09:11.905Z,24.70
2017-08-16T21:11:39.563Z,31.30
2017-08-16T21:14:08.984Z,21.08
2017-08-16T21:16:36.433Z,27.52
2017-08-16T21:19:04.133Z,25.50
2017-08-16T21:21:32.085Z,25.35
2017-08-16T21:24:00.050Z,23.98
2017-08-16T21:26:28.381Z,23.05
2017-08-16T21:28:56.157Z,28.33
2017-08-16T21:31:24.261Z,29.73
2017-08-16T21:33:52.593Z,29.20
2017-08-16T21:36:20.246Z,26.45
2017-08-16T21:38:48.281Z,29.50
2017-08-16T21:41:16.520Z,26.53
2017-08-16T21:43:44.265Z,20.05
2017-08-16T21:46:12.162Z,21.42
2017-08-16T21:48:40.004Z,22.62
2017-08-16T21:51:07.861Z,28.05
2017-08-16T21:53:35.364Z,26.27
2017-08-16T21:56:04.724Z,28.77
2017-08-16T21:58:32.638Z,30.98
2017-08-16T22:01:00.934Z,27.95
2017-08-16T22:03:28.729Z,32.83
2017-08-16T22:05:57.397Z,30.75
2017-08-16T22:08:25.886Z,30.95
2017-08-16T22:10:54.425Z,28.50
2017-08-16T22:13:22.910Z,28.70
2017-08-16T22:15:51.961Z,27.05
2017-08-16T22:18:19.431Z,30.55
2017-08-16T22:20:54.904Z,30.65
2017-08-16T22:23:22.924Z,33.28
2017-08-16T22:25:50.376Z,29.95
2017-08-16T22:28:18.129Z,31.50
2017-08-16T22:30:45.638Z,28.10
2017-08-16T22:33:13.907Z,27.55
2017-08-16T22:35:42.742Z,27.65
2017-08-16T22:38:10.310Z,33.10
2017-08-16T22:40:37.872Z,31.70
2017-08-16T22:43:06.549Z,28.40
2017-08-16T22:45:35.205Z,42.20
2017-08-16T22:48:03.721Z,31.33
2017-08-16T22:50:31.180Z,29.45
2017-08-16T22:52:59.865Z,26.62
2017-08-16T22:55:27.558Z,27.75
2017-08-16T22:57:56.104Z,30.65
2017-08-16T23:00:23.566Z,30.75
2017-08-16T23:02:52.636Z,33.15
2017-08-16T23:05:20.817Z,28.08
2017-08-16T23:07:48.589Z,34.40
2017-08-16T23:10:16.100Z,29.83
2017-08-16T23:12:44.930Z,32.60
2017-08-16T23:15:19.784Z,28.42
2017-08-16T23:17:48.434Z,29.47
2017-08-16T23:20:15.904Z,32.47
2017-08-16T23:22:43.654Z,27.70
2017-08-16T23:25:11.218Z,28.15
2017-08-16T23:27:49.085Z,30.67
2017-08-16T23:30:17.444Z,32.95
2017-08-16T23:32:45.878Z,29.35
2017-08-16T23:35:16.876Z,29.23
2017-08-16T23:37:45.106Z,37.97
2017-08-16T23:40:16.784Z,33.35
2017-08-16T23:42:46.005Z,31.02
2017-08-16T23:45:13.474Z,30.98
2017-08-16T23:47:42.789Z,33.80
2017-08-16T23:50:10.232Z,30.08
2017-08-16T23:55:14.966Z,36.05
2017-08-16T23:57:43.176Z,32.47
